sensor_id;sensor_type;location;lat;lon;timestamp;pressure;altitude;pressure_sealevel;temperature
69007;BMP180;56061;51.748;19.620;2022-11-15T00:00:56;99208.60;;;6.10
69007;BMP180;56061;51.748;19.620;2022-11-15T00:03:26;99212.20;;;6.10
69007;BMP180;56061;51.748;19.620;2022-11-15T00:05:53;99207.60;;;6.10
69007;BMP180;56061;51.748;19.620;2022-11-15T00:08:19;99209.80;;;6.10
69007;BMP180;56061;51.748;19.620;2022-11-15T00:10:58;99211.20;;;6.10
69007;BMP180;56061;51.748;19.620;2022-11-15T00:13:25;99213.80;;;6.10
69007;BMP180;56061;51.748;19.620;2022-11-15T00:15:52;99210.40;;;6.10
69007;BMP180;56061;51.748;19.620;2022-11-15T00:18:18;99207.60;;;6.10
69007;BMP180;56061;51.748;19.620;2022-11-15T00:20:45;99206.20;;;6.00
69007;BMP180;56061;51.748;19.620;2022-11-15T00:23:12;99207.60;;;6.00
69007;BMP180;56061;51.748;19.620;2022-11-15T00:25:38;99201.00;;;6.02
69007;BMP180;56061;51.748;19.620;2022-11-15T00:28:05;99202.20;;;6.06
69007;BMP180;56061;51.748;19.620;2022-11-15T00:30:31;99202.80;;;6.00
69007;BMP180;56061;51.748;19.620;2022-11-15T00:33:05;99193.00;;;6.00
69007;BMP180;56061;51.748;19.620;2022-11-15T00:35:33;99190.40;;;6.00
69007;BMP180;56061;51.748;19.620;2022-11-15T00:38:01;99182.80;;;5.92
69007;BMP180;56061;51.748;19.620;2022-11-15T00:40:28;99175.40;;;5.90
69007;BMP180;56061;51.748;19.620;2022-11-15T00:42:54;99170.60;;;5.80
69007;BMP180;56061;51.748;19.620;2022-11-15T00:45:22;99167.40;;;5.80
69007;BMP180;56061;51.748;19.620;2022-11-15T00:47:48;99171.40;;;5.80
69007;BMP180;56061;51.748;19.620;2022-11-15T00:50:15;99172.60;;;5.80
69007;BMP180;56061;51.748;19.620;2022-11-15T00:52:42;99166.60;;;5.80
69007;BMP180;56061;51.748;19.620;2022-11-15T00:55:19;99162.00;;;5.78
69007;BMP180;56061;51.748;19.620;2022-11-15T00:57:46;99156.40;;;5.80
69007;BMP180;56061;51.748;19.620;2022-11-15T01:00:13;99153.20;;;5.70
69007;BMP180;56061;51.748;19.620;2022-11-15T01:02:40;99153.00;;;5.70
69007;BMP180;56061;51.748;19.620;2022-11-15T01:05:07;99149.60;;;5.72
69007;BMP180;56061;51.748;19.620;2022-11-15T01:07:34;99146.20;;;5.80
69007;BMP180;56061;51.748;19.620;2022-11-15T01:10:02;99138.80;;;5.80
69007;BMP180;56061;51.748;19.620;2022-11-15T01:12:29;99140.20;;;5.80
69007;BMP180;56061;51.748;19.620;2022-11-15T01:14:55;99142.80;;;5.86
69007;BMP180;56061;51.748;19.620;2022-11-15T01:17:22;99138.20;;;5.86
69007;BMP180;56061;51.748;19.620;2022-11-15T01:19:49;99136.60;;;5.80
69007;BMP180;56061;51.748;19.620;2022-11-15T01:22:16;99129.60;;;5.84
69007;BMP180;56061;51.748;19.620;2022-11-15T01:24:43;99124.00;;;5.90
69007;BMP180;56061;51.748;19.620;2022-11-15T01:27:10;99126.80;;;5.84
69007;BMP180;56061;51.748;19.620;2022-11-15T01:29:36;99119.60;;;5.80
69007;BMP180;56061;51.748;19.620;2022-11-15T01:32:03;99112.00;;;5.80
69007;BMP180;56061;51.748;19.620;2022-11-15T01:34:30;99109.00;;;5.90
69007;BMP180;56061;51.748;19.620;2022-11-15T01:36:56;99114.00;;;5.90
69007;BMP180;56061;51.748;19.620;2022-11-15T01:39:23;99110.20;;;5.90
69007;BMP180;56061;51.748;19.620;2022-11-15T01:41:49;99107.60;;;5.90
69007;BMP180;56061;51.748;19.620;2022-11-15T01:44:51;99101.20;;;5.90
69007;BMP180;56061;51.748;19.620;2022-11-15T01:47:30;99108.60;;;5.90
69007;BMP180;56061;51.748;19.620;2022-11-15T01:50:06;99101.60;;;5.90
69007;BMP180;56061;51.748;19.620;2022-11-15T01:52:35;99097.20;;;5.90
69007;BMP180;56061;51.748;19.620;2022-11-15T01:55:19;99091.00;;;5.80
69007;BMP180;56061;51.748;19.620;2022-11-15T01:57:51;99085.00;;;5.80
69007;BMP180;56061;51.748;19.620;2022-11-15T02:00:19;99085.00;;;5.90
69007;BMP180;56061;51.748;19.620;2022-11-15T02:02:46;99081.60;;;5.90
69007;BMP180;56061;51.748;19.620;2022-11-15T02:05:13;99073.40;;;5.90
69007;BMP180;56061;51.748;19.620;2022-11-15T02:07:40;99069.20;;;5.90
69007;BMP180;56061;51.748;19.620;2022-11-15T02:13:01;99063.20;;;5.90
69007;BMP180;56061;51.748;19.620;2022-11-15T02:15:40;99059.40;;;5.88
69007;BMP180;56061;51.748;19.620;2022-11-15T02:18:26;99059.60;;;5.80
69007;BMP180;56061;51.748;19.620;2022-11-15T02:21:15;99057.40;;;5.80
69007;BMP180;56061;51.748;19.620;2022-11-15T02:32:04;99057.60;;;5.80
69007;BMP180;56061;51.748;19.620;2022-11-15T02:35:02;99060.20;;;5.84
69007;BMP180;56061;51.748;19.620;2022-11-15T02:38:06;99063.40;;;5.90
69007;BMP180;56061;51.748;19.620;2022-11-15T02:40:56;99060.40;;;5.90
69007;BMP180;56061;51.748;19.620;2022-11-15T02:43:33;99056.60;;;5.90
69007;BMP180;56061;51.748;19.620;2022-11-15T02:46:36;99063.20;;;5.90
69007;BMP180;56061;51.748;19.620;2022-11-15T02:49:26;99050.00;;;5.90
69007;BMP180;56061;51.748;19.620;2022-11-15T02:51:55;99047.00;;;5.90
69007;BMP180;56061;51.748;19.620;2022-11-15T02:54:30;99044.40;;;5.90
69007;BMP180;56061;51.748;19.620;2022-11-15T02:57:07;99043.40;;;5.90
69007;BMP180;56061;51.748;19.620;2022-11-15T03:00:05;99047.20;;;5.90
69007;BMP180;56061;51.748;19.620;2022-11-15T03:03:04;99042.80;;;5.90
69007;BMP180;56061;51.748;19.620;2022-11-15T03:11:36;99022.20;;;5.80
69007;BMP180;56061;51.748;19.620;2022-11-15T03:14:25;99024.60;;;5.82
69007;BMP180;56061;51.748;19.620;2022-11-15T03:19:52;99026.20;;;5.90
69007;BMP180;56061;51.748;19.620;2022-11-15T03:22:23;99025.20;;;5.98
69007;BMP180;56061;51.748;19.620;2022-11-15T03:24:57;99025.20;;;6.00
69007;BMP180;56061;51.748;19.620;2022-11-15T03:27:37;99025.00;;;5.92
69007;BMP180;56061;51.748;19.620;2022-11-15T03:30:08;99023.80;;;5.90
69007;BMP180;56061;51.748;19.620;2022-11-15T03:32:51;99024.00;;;5.84
69007;BMP180;56061;51.748;19.620;2022-11-15T03:35:27;99016.40;;;5.80
69007;BMP180;56061;51.748;19.620;2022-11-15T03:38:25;99014.20;;;5.80
69007;BMP180;56061;51.748;19.620;2022-11-15T03:40:59;99009.40;;;5.80
69007;BMP180;56061;51.748;19.620;2022-11-15T03:59:50;98999.20;;;5.90
69007;BMP180;56061;51.748;19.620;2022-11-15T04:02:17;98999.00;;;5.80
69007;BMP180;56061;51.748;19.620;2022-11-15T04:12:56;98991.80;;;5.90
69007;BMP180;56061;51.748;19.620;2022-11-15T04:15:24;98988.40;;;5.90
69007;BMP180;56061;51.748;19.620;2022-11-15T04:17:55;98988.20;;;5.90
69007;BMP180;56061;51.748;19.620;2022-11-15T04:24:33;98979.60;;;5.98
69007;BMP180;56061;51.748;19.620;2022-11-15T04:27:00;98976.80;;;5.92
69007;BMP180;56061;51.748;19.620;2022-11-15T04:29:26;98973.60;;;5.96
69007;BMP180;56061;51.748;19.620;2022-11-15T04:32:04;98967.80;;;5.94
69007;BMP180;56061;51.748;19.620;2022-11-15T04:34:31;98966.00;;;5.96
69007;BMP180;56061;51.748;19.620;2022-11-15T04:36:59;98969.20;;;6.00
69007;BMP180;56061;51.748;19.620;2022-11-15T04:39:39;98968.20;;;6.00
69007;BMP180;56061;51.748;19.620;2022-11-15T04:42:07;98959.40;;;5.98
69007;BMP180;56061;51.748;19.620;2022-11-15T04:44:34;98960.80;;;5.92
69007;BMP180;56061;51.748;19.620;2022-11-15T04:47:01;98956.00;;;5.90
69007;BMP180;56061;51.748;19.620;2022-11-15T04:49:27;98947.20;;;5.94
69007;BMP180;56061;51.748;19.620;2022-11-15T04:59:34;98940.20;;;5.90
69007;BMP180;56061;51.748;19.620;2022-11-15T05:02:00;98947.80;;;5.90
69007;BMP180;56061;51.748;19.620;2022-11-15T05:04:27;98941.80;;;5.90
69007;BMP180;56061;51.748;19.620;2022-11-15T05:06:53;98937.20;;;5.92
69007;BMP180;56061;51.748;19.620;2022-11-15T05:09:20;98941.60;;;5.94
69007;BMP180;56061;51.748;19.620;2022-11-15T05:11:47;98936.80;;;5.94
69007;BMP180;56061;51.748;19.620;2022-11-15T05:14:15;98929.80;;;5.90
69007;BMP180;56061;51.748;19.620;2022-11-15T05:16:42;98932.80;;;5.90
69007;BMP180;56061;51.748;19.620;2022-11-15T05:19:08;98932.60;;;5.90
69007;BMP180;56061;51.748;19.620;2022-11-15T05:21:36;98934.60;;;5.90
69007;BMP180;56061;51.748;19.620;2022-11-15T05:31:50;98935.60;;;5.92
69007;BMP180;56061;51.748;19.620;2022-11-15T05:34:17;98939.20;;;5.96
69007;BMP180;56061;51.748;19.620;2022-11-15T05:36:44;98939.60;;;6.00
69007;BMP180;56061;51.748;19.620;2022-11-15T05:39:12;98937.80;;;6.00
69007;BMP180;56061;51.748;19.620;2022-11-15T05:41:52;98931.00;;;6.00
69007;BMP180;56061;51.748;19.620;2022-11-15T05:44:23;98923.40;;;6.00
69007;BMP180;56061;51.748;19.620;2022-11-15T05:46:51;98922.80;;;6.00
69007;BMP180;56061;51.748;19.620;2022-11-15T05:49:24;98929.60;;;5.98
69007;BMP180;56061;51.748;19.620;2022-11-15T05:51:53;98922.60;;;5.96
69007;BMP180;56061;51.748;19.620;2022-11-15T05:54:21;98923.20;;;5.92
69007;BMP180;56061;51.748;19.620;2022-11-15T05:56:49;98921.40;;;5.92
69007;BMP180;56061;51.748;19.620;2022-11-15T05:59:16;98924.00;;;5.90
69007;BMP180;56061;51.748;19.620;2022-11-15T06:01:43;98927.60;;;5.90
69007;BMP180;56061;51.748;19.620;2022-11-15T06:04:10;98920.40;;;5.90
69007;BMP180;56061;51.748;19.620;2022-11-15T06:06:36;98913.60;;;5.94
69007;BMP180;56061;51.748;19.620;2022-11-15T06:09:03;98912.20;;;5.90
69007;BMP180;56061;51.748;19.620;2022-11-15T06:11:29;98912.40;;;5.90
69007;BMP180;56061;51.748;19.620;2022-11-15T06:13:56;98913.00;;;5.90
69007;BMP180;56061;51.748;19.620;2022-11-15T06:16:23;98909.60;;;5.98
69007;BMP180;56061;51.748;19.620;2022-11-15T06:18:49;98915.40;;;6.00
69007;BMP180;56061;51.748;19.620;2022-11-15T06:21:16;98917.00;;;6.00
69007;BMP180;56061;51.748;19.620;2022-11-15T06:23:42;98918.60;;;6.00
69007;BMP180;56061;51.748;19.620;2022-11-15T06:26:09;98914.40;;;6.00
69007;BMP180;56061;51.748;19.620;2022-11-15T06:28:35;98911.20;;;6.00
69007;BMP180;56061;51.748;19.620;2022-11-15T06:31:04;98912.00;;;6.00
69007;BMP180;56061;51.748;19.620;2022-11-15T06:33:31;98906.40;;;6.00
69007;BMP180;56061;51.748;19.620;2022-11-15T06:36:08;98911.20;;;6.00
69007;BMP180;56061;51.748;19.620;2022-11-15T06:38:44;98915.40;;;6.00
69007;BMP180;56061;51.748;19.620;2022-11-15T06:41:12;98919.20;;;6.00
69007;BMP180;56061;51.748;19.620;2022-11-15T06:43:40;98919.60;;;6.10
69007;BMP180;56061;51.748;19.620;2022-11-15T06:46:07;98917.20;;;6.10
69007;BMP180;56061;51.748;19.620;2022-11-15T06:48:34;98914.60;;;6.20
69007;BMP180;56061;51.748;19.620;2022-11-15T06:51:03;98907.80;;;6.20
69007;BMP180;56061;51.748;19.620;2022-11-15T06:53:31;98905.20;;;6.20
69007;BMP180;56061;51.748;19.620;2022-11-15T06:56:03;98905.80;;;6.20
69007;BMP180;56061;51.748;19.620;2022-11-15T06:58:30;98905.40;;;6.20
69007;BMP180;56061;51.748;19.620;2022-11-15T07:01:04;98911.20;;;6.20
69007;BMP180;56061;51.748;19.620;2022-11-15T07:03:31;98915.00;;;6.20
69007;BMP180;56061;51.748;19.620;2022-11-15T07:05:58;98914.20;;;6.24
69007;BMP180;56061;51.748;19.620;2022-11-15T07:08:32;98915.80;;;6.30
69007;BMP180;56061;51.748;19.620;2022-11-15T07:11:05;98924.00;;;6.30
69007;BMP180;56061;51.748;19.620;2022-11-15T07:13:33;98925.20;;;6.40
69007;BMP180;56061;51.748;19.620;2022-11-15T07:16:07;98925.60;;;6.40
69007;BMP180;56061;51.748;19.620;2022-11-15T07:18:39;98918.40;;;6.40
69007;BMP180;56061;51.748;19.620;2022-11-15T07:21:10;98910.80;;;6.44
69007;BMP180;56061;51.748;19.620;2022-11-15T07:23:38;98912.40;;;6.48
69007;BMP180;56061;51.748;19.620;2022-11-15T07:26:06;98911.40;;;6.50
69007;BMP180;56061;51.748;19.620;2022-11-15T07:28:34;98913.80;;;6.50
69007;BMP180;56061;51.748;19.620;2022-11-15T07:31:07;98919.80;;;6.60
69007;BMP180;56061;51.748;19.620;2022-11-15T07:33:34;98917.60;;;6.60
69007;BMP180;56061;51.748;19.620;2022-11-15T07:36:03;98911.00;;;6.60
69007;BMP180;56061;51.748;19.620;2022-11-15T07:38:30;98915.00;;;6.60
69007;BMP180;56061;51.748;19.620;2022-11-15T07:41:00;98915.40;;;6.70
69007;BMP180;56061;51.748;19.620;2022-11-15T07:43:27;98909.80;;;6.70
69007;BMP180;56061;51.748;19.620;2022-11-15T07:45:55;98911.20;;;6.70
69007;BMP180;56061;51.748;19.620;2022-11-15T07:48:24;98916.20;;;6.70
69007;BMP180;56061;51.748;19.620;2022-11-15T07:51:12;98912.60;;;6.70
69007;BMP180;56061;51.748;19.620;2022-11-15T07:53:41;98909.80;;;6.72
69007;BMP180;56061;51.748;19.620;2022-11-15T07:56:08;98905.80;;;6.80
69007;BMP180;56061;51.748;19.620;2022-11-15T07:58:35;98909.00;;;6.80
69007;BMP180;56061;51.748;19.620;2022-11-15T08:01:06;98902.60;;;6.86
69007;BMP180;56061;51.748;19.620;2022-11-15T08:03:34;98897.80;;;6.90
69007;BMP180;56061;51.748;19.620;2022-11-15T08:06:02;98897.40;;;7.00
69007;BMP180;56061;51.748;19.620;2022-11-15T08:08:28;98896.80;;;7.00
69007;BMP180;56061;51.748;19.620;2022-11-15T08:10:58;98894.60;;;7.10
69007;BMP180;56061;51.748;19.620;2022-11-15T08:13:24;98896.60;;;7.18
69007;BMP180;56061;51.748;19.620;2022-11-15T08:15:50;98888.00;;;7.20
69007;BMP180;56061;51.748;19.620;2022-11-15T08:18:23;98883.20;;;7.20
69007;BMP180;56061;51.748;19.620;2022-11-15T08:20:49;98883.60;;;7.30
69007;BMP180;56061;51.748;19.620;2022-11-15T08:23:16;98881.00;;;7.36
69007;BMP180;56061;51.748;19.620;2022-11-15T08:25:42;98879.40;;;7.40
69007;BMP180;56061;51.748;19.620;2022-11-15T08:28:10;98881.20;;;7.40
69007;BMP180;56061;51.748;19.620;2022-11-15T08:30:40;98880.20;;;7.46
69007;BMP180;56061;51.748;19.620;2022-11-15T08:33:13;98881.40;;;7.50
69007;BMP180;56061;51.748;19.620;2022-11-15T08:35:41;98880.80;;;7.50
69007;BMP180;56061;51.748;19.620;2022-11-15T08:38:09;98877.20;;;7.58
69007;BMP180;56061;51.748;19.620;2022-11-15T08:40:36;98875.00;;;7.60
69007;BMP180;56061;51.748;19.620;2022-11-15T08:43:03;98869.80;;;7.60
69007;BMP180;56061;51.748;19.620;2022-11-15T08:45:30;98864.40;;;7.70
69007;BMP180;56061;51.748;19.620;2022-11-15T08:47:57;98863.20;;;7.80
69007;BMP180;56061;51.748;19.620;2022-11-15T08:50:23;98859.40;;;7.88
69007;BMP180;56061;51.748;19.620;2022-11-15T08:52:50;98856.80;;;7.90
69007;BMP180;56061;51.748;19.620;2022-11-15T08:55:16;98852.40;;;8.00
69007;BMP180;56061;51.748;19.620;2022-11-15T08:57:43;98854.20;;;8.00
69007;BMP180;56061;51.748;19.620;2022-11-15T09:00:11;98855.00;;;8.00
69007;BMP180;56061;51.748;19.620;2022-11-15T09:02:39;98855.60;;;8.10
69007;BMP180;56061;51.748;19.620;2022-11-15T09:05:06;98852.00;;;8.10
69007;BMP180;56061;51.748;19.620;2022-11-15T09:07:33;98852.60;;;8.10
69007;BMP180;56061;51.748;19.620;2022-11-15T09:10:00;98850.80;;;8.10
69007;BMP180;56061;51.748;19.620;2022-11-15T09:12:27;98850.60;;;8.20
69007;BMP180;56061;51.748;19.620;2022-11-15T09:14:53;98840.40;;;8.20
69007;BMP180;56061;51.748;19.620;2022-11-15T09:17:20;98846.60;;;8.20
69007;BMP180;56061;51.748;19.620;2022-11-15T09:19:50;98845.40;;;8.28
69007;BMP180;56061;51.748;19.620;2022-11-15T09:22:16;98841.00;;;8.30
69007;BMP180;56061;51.748;19.620;2022-11-15T09:24:43;98834.00;;;8.30
69007;BMP180;56061;51.748;19.620;2022-11-15T09:27:09;98832.40;;;8.32
69007;BMP180;56061;51.748;19.620;2022-11-15T09:29:36;98833.60;;;8.40
69007;BMP180;56061;51.748;19.620;2022-11-15T09:32:02;98831.00;;;8.40
69007;BMP180;56061;51.748;19.620;2022-11-15T09:34:29;98826.60;;;8.48
69007;BMP180;56061;51.748;19.620;2022-11-15T09:36:55;98826.00;;;8.46
69007;BMP180;56061;51.748;19.620;2022-11-15T09:39:22;98828.40;;;8.50
69007;BMP180;56061;51.748;19.620;2022-11-15T09:42:20;98829.20;;;8.50
69007;BMP180;56061;51.748;19.620;2022-11-15T09:47:55;98828.00;;;8.50
69007;BMP180;56061;51.748;19.620;2022-11-15T09:50:36;98826.60;;;8.50
69007;BMP180;56061;51.748;19.620;2022-11-15T09:53:14;98826.00;;;8.50
69007;BMP180;56061;51.748;19.620;2022-11-15T09:55:56;98820.80;;;8.50
69007;BMP180;56061;51.748;19.620;2022-11-15T09:58:53;98813.80;;;8.50
69007;BMP180;56061;51.748;19.620;2022-11-15T10:04:25;98800.40;;;8.60
69007;BMP180;56061;51.748;19.620;2022-11-15T10:07:25;98792.60;;;8.60
69007;BMP180;56061;51.748;19.620;2022-11-15T10:10:17;98790.20;;;8.60
69007;BMP180;56061;51.748;19.620;2022-11-15T10:12:49;98789.00;;;8.60
69007;BMP180;56061;51.748;19.620;2022-11-15T10:15:18;98783.40;;;8.60
69007;BMP180;56061;51.748;19.620;2022-11-15T10:20:51;98781.80;;;8.70
69007;BMP180;56061;51.748;19.620;2022-11-15T10:23:23;98781.20;;;8.72
69007;BMP180;56061;51.748;19.620;2022-11-15T10:25:59;98772.00;;;8.80
69007;BMP180;56061;51.748;19.620;2022-11-15T10:28:31;98780.00;;;8.80
69007;BMP180;56061;51.748;19.620;2022-11-15T10:31:00;98772.80;;;8.80
69007;BMP180;56061;51.748;19.620;2022-11-15T10:33:35;98769.60;;;8.88
69007;BMP180;56061;51.748;19.620;2022-11-15T10:39:04;98756.20;;;8.90
69007;BMP180;56061;51.748;19.620;2022-11-15T10:41:37;98759.60;;;9.00
69007;BMP180;56061;51.748;19.620;2022-11-15T10:46:36;98749.40;;;9.10
69007;BMP180;56061;51.748;19.620;2022-11-15T10:49:20;98735.20;;;9.20
69007;BMP180;56061;51.748;19.620;2022-11-15T10:52:02;98736.00;;;9.24
69007;BMP180;56061;51.748;19.620;2022-11-15T10:54:37;98742.80;;;9.30
69007;BMP180;56061;51.748;19.620;2022-11-15T10:57:17;98732.00;;;9.30
69007;BMP180;56061;51.748;19.620;2022-11-15T11:05:39;98723.20;;;9.44
69007;BMP180;56061;51.748;19.620;2022-11-15T11:10:38;98717.00;;;9.56
69007;BMP180;56061;51.748;19.620;2022-11-15T11:13:36;98715.80;;;9.60
69007;BMP180;56061;51.748;19.620;2022-11-15T11:17:05;98716.80;;;9.70
69007;BMP180;56061;51.748;19.620;2022-11-15T11:19:48;98713.00;;;9.80
69007;BMP180;56061;51.748;19.620;2022-11-15T11:25:22;98710.80;;;9.90
69007;BMP180;56061;51.748;19.620;2022-11-15T11:28:05;98707.20;;;9.90
69007;BMP180;56061;51.748;19.620;2022-11-15T11:30:52;98697.60;;;10.00
69007;BMP180;56061;51.748;19.620;2022-11-15T11:33:31;98696.00;;;10.02
69007;BMP180;56061;51.748;19.620;2022-11-15T11:36:53;98694.80;;;10.10
69007;BMP180;56061;51.748;19.620;2022-11-15T11:45:44;98686.80;;;10.20
69007;BMP180;56061;51.748;19.620;2022-11-15T11:51:22;98682.20;;;10.30
69007;BMP180;56061;51.748;19.620;2022-11-15T11:54:03;98680.00;;;10.30
69007;BMP180;56061;51.748;19.620;2022-11-15T11:56:39;98676.40;;;10.40
69007;BMP180;56061;51.748;19.620;2022-11-15T11:59:30;98674.40;;;10.40
69007;BMP180;56061;51.748;19.620;2022-11-15T12:02:11;98676.80;;;10.50
69007;BMP180;56061;51.748;19.620;2022-11-15T12:04:45;98670.40;;;10.60
69007;BMP180;56061;51.748;19.620;2022-11-15T12:07:24;98668.60;;;10.60
69007;BMP180;56061;51.748;19.620;2022-11-15T12:10:29;98663.60;;;10.64
69007;BMP180;56061;51.748;19.620;2022-11-15T12:13:10;98660.80;;;10.70
69007;BMP180;56061;51.748;19.620;2022-11-15T12:15:46;98657.40;;;10.78
69007;BMP180;56061;51.748;19.620;2022-11-15T12:18:16;98653.80;;;10.80
69007;BMP180;56061;51.748;19.620;2022-11-15T12:20:55;98646.20;;;10.90
69007;BMP180;56061;51.748;19.620;2022-11-15T12:23:32;98644.20;;;10.90
69007;BMP180;56061;51.748;19.620;2022-11-15T12:26:15;98648.60;;;11.00
69007;BMP180;56061;51.748;19.620;2022-11-15T12:28:52;98643.80;;;11.00
69007;BMP180;56061;51.748;19.620;2022-11-15T12:31:40;98643.40;;;11.00
69007;BMP180;56061;51.748;19.620;2022-11-15T12:36:50;98637.40;;;11.00
69007;BMP180;56061;51.748;19.620;2022-11-15T12:39:18;98632.40;;;11.00
69007;BMP180;56061;51.748;19.620;2022-11-15T12:47:03;98628.40;;;11.00
69007;BMP180;56061;51.748;19.620;2022-11-15T12:59:56;98615.40;;;10.74
69007;BMP180;56061;51.748;19.620;2022-11-15T13:02:46;98609.20;;;10.80
69007;BMP180;56061;51.748;19.620;2022-11-15T13:13:04;98609.60;;;10.86
69007;BMP180;56061;51.748;19.620;2022-11-15T13:20:49;98609.40;;;10.90
69007;BMP180;56061;51.748;19.620;2022-11-15T13:23:16;98605.60;;;10.90
69007;BMP180;56061;51.748;19.620;2022-11-15T13:26:13;98599.20;;;10.94
69007;BMP180;56061;51.748;19.620;2022-11-15T13:28:48;98598.20;;;10.92
69007;BMP180;56061;51.748;19.620;2022-11-15T13:31:35;98602.60;;;10.90
69007;BMP180;56061;51.748;19.620;2022-11-15T13:34:26;98607.20;;;10.90
69007;BMP180;56061;51.748;19.620;2022-11-15T13:39:48;98590.40;;;10.90
69007;BMP180;56061;51.748;19.620;2022-11-15T13:42:17;98598.40;;;10.80
69007;BMP180;56061;51.748;19.620;2022-11-15T13:45:00;98595.40;;;10.80
69007;BMP180;56061;51.748;19.620;2022-11-15T13:47:30;98587.60;;;10.72
69007;BMP180;56061;51.748;19.620;2022-11-15T13:49:59;98584.60;;;10.70
69007;BMP180;56061;51.748;19.620;2022-11-15T13:52:32;98588.20;;;10.70
69007;BMP180;56061;51.748;19.620;2022-11-15T13:55:05;98579.60;;;10.70
69007;BMP180;56061;51.748;19.620;2022-11-15T13:57:56;98587.00;;;10.60
69007;BMP180;56061;51.748;19.620;2022-11-15T14:00:39;98583.60;;;10.50
69007;BMP180;56061;51.748;19.620;2022-11-15T14:03:15;98579.00;;;10.50
69007;BMP180;56061;51.748;19.620;2022-11-15T14:06:08;98579.00;;;10.40
69007;BMP180;56061;51.748;19.620;2022-11-15T14:08:41;98582.60;;;10.40
69007;BMP180;56061;51.748;19.620;2022-11-15T14:11:19;98586.40;;;10.30
69007;BMP180;56061;51.748;19.620;2022-11-15T14:16:40;98578.20;;;10.20
69007;BMP180;56061;51.748;19.620;2022-11-15T14:22:17;98578.20;;;10.16
69007;BMP180;56061;51.748;19.620;2022-11-15T14:25:19;98575.00;;;10.10
69007;BMP180;56061;51.748;19.620;2022-11-15T14:30:55;98575.40;;;9.90
69007;BMP180;56061;51.748;19.620;2022-11-15T14:33:29;98569.80;;;9.80
69007;BMP180;56061;51.748;19.620;2022-11-15T14:36:18;98561.60;;;9.68
69007;BMP180;56061;51.748;19.620;2022-11-15T14:38:46;98566.00;;;9.60
69007;BMP180;56061;51.748;19.620;2022-11-15T14:41:25;98566.80;;;9.50
69007;BMP180;56061;51.748;19.620;2022-11-15T14:43:58;98565.60;;;9.40
69007;BMP180;56061;51.748;19.620;2022-11-15T14:46:25;98564.20;;;9.30
69007;BMP180;56061;51.748;19.620;2022-11-15T14:48:51;98561.80;;;9.20
69007;BMP180;56061;51.748;19.620;2022-11-15T14:51:18;98561.40;;;9.10
69007;BMP180;56061;51.748;19.620;2022-11-15T14:53:46;98559.80;;;9.00
69007;BMP180;56061;51.748;19.620;2022-11-15T14:56:14;98547.20;;;8.90
69007;BMP180;56061;51.748;19.620;2022-11-15T14:58:41;98546.80;;;8.80
69007;BMP180;56061;51.748;19.620;2022-11-15T15:01:24;98548.80;;;8.70
69007;BMP180;56061;51.748;19.620;2022-11-15T15:03:51;98549.00;;;8.60
69007;BMP180;56061;51.748;19.620;2022-11-15T15:06:20;98547.20;;;8.50
69007;BMP180;56061;51.748;19.620;2022-11-15T15:08:46;98548.40;;;8.40
69007;BMP180;56061;51.748;19.620;2022-11-15T15:11:24;98545.60;;;8.30
69007;BMP180;56061;51.748;19.620;2022-11-15T15:13:52;98539.40;;;8.30
69007;BMP180;56061;51.748;19.620;2022-11-15T15:16:19;98538.80;;;8.20
69007;BMP180;56061;51.748;19.620;2022-11-15T15:18:45;98537.60;;;8.10
69007;BMP180;56061;51.748;19.620;2022-11-15T15:21:21;98534.20;;;8.00
69007;BMP180;56061;51.748;19.620;2022-11-15T15:23:49;98540.60;;;7.90
69007;BMP180;56061;51.748;19.620;2022-11-15T15:26:18;98546.80;;;7.78
69007;BMP180;56061;51.748;19.620;2022-11-15T15:28:45;98543.80;;;7.64
69007;BMP180;56061;51.748;19.620;2022-11-15T15:31:11;98544.80;;;7.60
69007;BMP180;56061;51.748;19.620;2022-11-15T15:33:38;98549.80;;;7.56
69007;BMP180;56061;51.748;19.620;2022-11-15T15:36:05;98551.80;;;7.50
69007;BMP180;56061;51.748;19.620;2022-11-15T15:38:31;98543.00;;;7.40
69007;BMP180;56061;51.748;19.620;2022-11-15T15:40:58;98541.40;;;7.28
69007;BMP180;56061;51.748;19.620;2022-11-15T15:43:28;98545.40;;;7.20
69007;BMP180;56061;51.748;19.620;2022-11-15T15:45:54;98546.60;;;7.10
69007;BMP180;56061;51.748;19.620;2022-11-15T15:48:21;98543.80;;;7.00
69007;BMP180;56061;51.748;19.620;2022-11-15T15:50:47;98539.80;;;7.00
69007;BMP180;56061;51.748;19.620;2022-11-15T15:53:15;98540.60;;;6.92
69007;BMP180;56061;51.748;19.620;2022-11-15T15:55:42;98541.60;;;6.88
69007;BMP180;56061;51.748;19.620;2022-11-15T15:58:09;98548.60;;;6.80
69007;BMP180;56061;51.748;19.620;2022-11-15T16:00:36;98547.00;;;6.76
69007;BMP180;56061;51.748;19.620;2022-11-15T16:03:03;98547.20;;;6.70
69007;BMP180;56061;51.748;19.620;2022-11-15T16:05:29;98545.20;;;6.70
69007;BMP180;56061;51.748;19.620;2022-11-15T16:07:56;98544.20;;;6.54
69007;BMP180;56061;51.748;19.620;2022-11-15T16:10:26;98542.00;;;6.50
69007;BMP180;56061;51.748;19.620;2022-11-15T16:12:55;98540.60;;;6.50
69007;BMP180;56061;51.748;19.620;2022-11-15T16:15:24;98536.20;;;6.50
69007;BMP180;56061;51.748;19.620;2022-11-15T16:17:58;98542.60;;;6.40
69007;BMP180;56061;51.748;19.620;2022-11-15T16:20:36;98543.20;;;6.30
69007;BMP180;56061;51.748;19.620;2022-11-15T16:23:07;98546.40;;;6.20
69007;BMP180;56061;51.748;19.620;2022-11-15T16:25:47;98544.60;;;6.10
69007;BMP180;56061;51.748;19.620;2022-11-15T16:28:26;98545.60;;;6.00
69007;BMP180;56061;51.748;19.620;2022-11-15T16:31:11;98547.80;;;5.90
69007;BMP180;56061;51.748;19.620;2022-11-15T16:33:39;98540.20;;;5.90
69007;BMP180;56061;51.748;19.620;2022-11-15T16:36:19;98545.40;;;5.90
69007;BMP180;56061;51.748;19.620;2022-11-15T16:38:52;98540.00;;;5.90
69007;BMP180;56061;51.748;19.620;2022-11-15T16:41:19;98538.00;;;5.90
69007;BMP180;56061;51.748;19.620;2022-11-15T16:43:46;98532.20;;;5.86
69007;BMP180;56061;51.748;19.620;2022-11-15T16:46:20;98532.60;;;5.80
69007;BMP180;56061;51.748;19.620;2022-11-15T16:48:48;98528.00;;;5.80
69007;BMP180;56061;51.748;19.620;2022-11-15T16:51:15;98536.00;;;5.80
69007;BMP180;56061;51.748;19.620;2022-11-15T16:53:43;98538.60;;;5.76
69007;BMP180;56061;51.748;19.620;2022-11-15T16:56:29;98536.20;;;5.70
69007;BMP180;56061;51.748;19.620;2022-11-15T16:58:58;98531.80;;;5.62